createdAt,value
2019-04-05T06:40:25.472Z,99006.73
2019-04-05T06:42:55.871Z,99007.73
2019-04-05T06:45:26.825Z,99009.41
2019-04-05T06:47:59.368Z,99006.84
2019-04-05T06:50:29.754Z,98997.78
2019-04-05T06:53:00.115Z,99003.37
2019-04-05T06:55:31.960Z,99008.96
2019-04-05T06:58:05.067Z,99005.07
2019-04-05T07:00:35.868Z,99010.23
2019-04-05T07:03:06.345Z,99005.89
2019-04-05T07:05:36.744Z,99013.59
2019-04-05T07:08:11.136Z,99011.39
2019-04-05T07:10:45.274Z,99013.52
2019-04-05T07:13:15.972Z,99013.05
2019-04-05T07:15:46.874Z,99007.45
2019-04-05T07:18:17.494Z,99012.56
2019-04-05T07:20:49.669Z,99010.43
2019-04-05T07:23:20.918Z,99009.47
2019-04-05T07:25:51.306Z,99017.17
2019-04-05T07:28:21.686Z,99013.33
2019-04-05T07:30:52.108Z,99021.89
2019-04-05T07:33:22.508Z,99021.89
2019-04-05T07:35:52.910Z,99014.06
2019-04-05T07:38:25.129Z,99013.56
2019-04-05T07:40:55.436Z,99011.80
2019-04-05T07:43:27.169Z,99022.05
2019-04-05T07:46:00.486Z,99022.03
2019-04-05T07:48:30.764Z,99012.99
2019-04-05T07:51:01.074Z,99015.58
2019-04-05T07:53:31.771Z,99011.31
2019-04-05T07:56:02.871Z,99015.18
2019-04-05T07:58:33.145Z,99014.71
2019-04-05T08:01:05.547Z,99013.87
2019-04-05T08:03:35.913Z,99014.59
2019-04-05T08:06:07.615Z,99014.07
2019-04-05T08:09:02.070Z,99017.92
2019-04-05T08:11:31.910Z,99015.70
2019-04-05T08:14:04.110Z,99012.59
2019-04-05T08:16:34.954Z,99016.94
2019-04-05T08:19:05.400Z,99015.64
2019-04-05T08:21:35.691Z,99019.52
2019-04-05T08:24:06.174Z,99016.16
2019-04-05T08:26:36.771Z,99022.62
2019-04-05T08:29:07.270Z,99018.64
2019-04-05T08:31:37.484Z,99014.83
2019-04-05T08:34:07.786Z,99010.77
2019-04-05T08:36:38.099Z,99010.30
2019-04-05T08:39:09.951Z,99018.39
2019-04-05T08:41:40.390Z,99010.52
2019-04-05T08:44:11.106Z,99015.77
2019-04-05T08:46:41.437Z,99012.36
2019-04-05T08:49:12.003Z,99019.03
2019-04-05T08:51:42.465Z,99022.33
2019-04-05T08:54:12.816Z,99020.83
2019-04-05T08:56:43.212Z,99023.22
2019-04-05T08:59:13.635Z,99027.42
2019-04-05T09:01:44.008Z,99018.95
2019-04-05T09:04:14.334Z,99023.52
2019-04-05T09:06:44.758Z,99021.67
2019-04-05T09:09:15.075Z,99025.55
2019-04-05T09:11:45.334Z,99029.92
2019-04-05T09:14:15.814Z,99029.00
2019-04-05T09:16:46.107Z,99023.27
2019-04-05T09:19:23.374Z,99024.25
2019-04-05T09:21:48.679Z,99029.66
2019-04-05T09:24:18.972Z,99025.97
2019-04-05T09:26:49.321Z,99024.87
2019-04-05T09:29:19.858Z,99036.06
2019-04-05T09:31:50.142Z,99030.05
2019-04-05T09:34:23.119Z,99027.77
2019-04-05T09:36:52.521Z,99022.23
2019-04-05T09:39:23.133Z,99022.01
2019-04-05T09:41:53.457Z,99024.51
2019-04-05T09:44:24.027Z,99030.16
2019-04-05T09:46:54.447Z,99026.53
2019-04-05T09:49:36.160Z,99018.02
2019-04-05T09:51:56.918Z,99024.55
2019-04-05T09:54:27.664Z,99023.50
2019-04-05T09:56:57.950Z,99025.19
2019-04-05T09:59:28.348Z,99029.61
2019-04-05T10:01:58.714Z,99025.45
2019-04-05T10:04:31.207Z,99018.05
2019-04-05T10:07:01.103Z,99027.41
2019-04-05T10:09:31.441Z,99031.44
2019-04-05T10:12:01.917Z,99034.03
2019-04-05T10:14:32.441Z,99026.27
2019-04-05T10:17:02.728Z,99028.02
2019-04-05T10:19:33.086Z,99026.20
2019-04-05T10:22:04.138Z,99026.59
2019-04-05T10:24:34.523Z,99024.19
2019-04-05T10:27:04.926Z,99030.48
2019-04-05T10:29:35.236Z,99029.70
2019-04-05T10:32:05.902Z,99033.16
2019-04-05T10:34:36.645Z,99028.70
2019-04-05T10:37:07.012Z,99028.97
2019-04-05T10:39:37.658Z,99037.73
2019-04-05T10:42:30.332Z,99037.48
2019-04-05T10:45:00.870Z,99032.73
2019-04-05T10:47:31.808Z,99025.84
2019-04-05T10:50:03.708Z,99030.59
2019-04-05T10:52:34.186Z,99026.41
2019-04-05T10:55:04.567Z,99013.60
2019-04-05T10:57:34.867Z,99004.70
2019-04-05T11:00:07.640Z,98999.16
2019-04-05T11:02:37.940Z,98999.13
2019-04-05T11:05:08.942Z,99001.75
2019-04-05T11:07:39.251Z,99000.71
2019-04-05T11:10:10.914Z,99014.44
2019-04-05T11:12:41.288Z,99011.23
2019-04-05T11:15:15.007Z,99002.56
2019-04-05T11:17:44.882Z,99006.83
2019-04-05T11:20:24.089Z,99000.95
2019-04-05T11:22:49.983Z,99006.52
2019-04-05T11:25:20.962Z,99006.97
2019-04-05T11:27:51.468Z,99008.20
2019-04-05T11:30:42.271Z,99003.27
2019-04-05T11:33:13.115Z,98997.31
2019-04-05T11:35:43.827Z,99001.14
2019-04-05T11:38:16.411Z,98997.35
2019-04-05T11:40:47.451Z,98989.91
2019-04-05T11:43:18.335Z,98985.93
2019-04-05T11:45:50.844Z,98990.72
2019-04-05T11:48:20.892Z,98990.33
2019-04-05T11:50:51.141Z,98991.75
2019-04-05T11:53:22.172Z,98996.16
2019-04-05T11:55:52.505Z,98978.84
2019-04-05T11:58:22.909Z,98988.09
2019-04-05T12:00:56.242Z,98979.27
2019-04-05T12:03:26.918Z,98969.78
2019-04-05T12:05:57.345Z,98969.47
2019-04-05T12:08:27.700Z,98977.48
2019-04-05T12:10:58.029Z,98979.66
2019-04-05T12:13:28.310Z,98984.73
2019-04-05T12:15:58.679Z,98980.64
2019-04-05T12:18:29.462Z,98976.64
2019-04-05T12:21:04.972Z,98975.73
2019-04-05T12:23:36.938Z,98968.59
2019-04-05T12:26:09.112Z,98970.02
2019-04-05T12:28:41.340Z,98962.68
2019-04-05T12:31:11.671Z,98958.87
2019-04-05T12:33:42.305Z,98955.23
2019-04-05T12:36:12.888Z,98956.17
2019-04-05T12:38:43.354Z,98953.93
2019-04-05T12:41:13.689Z,98956.30
2019-04-05T12:43:44.740Z,98958.13
2019-04-05T12:46:16.248Z,98964.05
2019-04-05T12:48:46.676Z,98962.12
2019-04-05T12:51:17.512Z,98951.27
2019-04-05T12:53:47.822Z,98953.84
2019-04-05T12:56:18.287Z,98945.76
2019-04-05T12:58:48.708Z,98949.34
2019-04-05T13:01:19.414Z,98952.34
2019-04-05T13:03:51.379Z,98953.97
2019-04-05T13:06:22.519Z,98951.78
2019-04-05T13:08:53.909Z,98944.86
2019-04-05T13:11:26.648Z,98944.30
2019-04-05T13:13:58.720Z,98938.75
2019-04-05T13:16:29.128Z,98932.55
2019-04-05T13:19:00.980Z,98941.43
2019-04-05T13:21:33.042Z,98932.05
2019-04-05T13:24:04.459Z,98933.62
2019-04-05T13:26:36.860Z,98941.31
2019-04-05T13:29:07.459Z,98938.77
2019-04-05T13:31:37.734Z,98941.84
2019-04-05T13:34:08.371Z,98947.89
2019-04-05T13:36:38.678Z,98944.55
2019-04-05T13:39:09.725Z,98939.83
2019-04-05T13:41:40.050Z,98940.31
2019-04-05T13:44:10.478Z,98936.20
2019-04-05T13:46:42.759Z,98929.54
2019-04-05T13:49:13.271Z,98929.54
2019-04-05T13:51:43.571Z,98928.13
2019-04-05T13:54:14.181Z,98919.92
2019-04-05T13:56:44.563Z,98922.56
2019-04-05T13:59:15.103Z,98918.25
2019-04-05T14:01:45.491Z,98912.58
2019-04-05T14:04:17.114Z,98905.09
2019-04-05T14:06:47.641Z,98902.42
2019-04-05T14:09:18.064Z,98899.61
2019-04-05T14:11:48.377Z,98900.20
2019-04-05T14:14:18.748Z,98904.17
2019-04-05T14:16:49.171Z,98905.80
2019-04-05T14:19:19.771Z,98903.66
2019-04-05T14:21:52.695Z,98904.41
2019-04-05T14:24:23.420Z,98896.44
2019-04-05T14:26:54.380Z,98902.20
2019-04-05T14:29:24.744Z,98903.91
2019-04-05T14:31:55.123Z,98907.25
2019-04-05T14:34:25.412Z,98903.30
2019-04-05T14:36:55.723Z,98899.94
2019-04-05T14:39:26.111Z,98895.59
2019-04-05T14:42:08.789Z,98899.94
2019-04-05T14:44:28.938Z,98901.35
2019-04-05T14:46:59.624Z,98895.95
2019-04-05T14:49:31.211Z,98893.36
2019-04-05T14:52:01.930Z,98886.88
2019-04-05T14:54:33.063Z,98889.59
2019-04-05T14:57:05.666Z,98894.39
2019-04-05T14:59:36.195Z,98900.23
2019-04-05T15:02:06.992Z,98895.95
2019-04-05T15:04:37.433Z,98894.13
2019-04-05T15:07:07.726Z,98896.30
2019-04-05T15:09:38.327Z,98891.12
2019-04-05T15:12:08.747Z,98887.91
2019-04-05T15:14:39.005Z,98893.59
2019-04-05T15:17:09.304Z,98895.13
2019-04-05T15:19:39.616Z,98892.45
2019-04-05T15:22:11.721Z,98899.77
2019-04-05T15:24:42.259Z,98898.48
2019-04-05T15:27:12.637Z,98897.78
2019-04-05T15:29:42.918Z,98893.73
2019-04-05T15:32:13.366Z,98900.05
2019-04-05T15:34:43.667Z,98897.55
2019-04-05T15:37:16.011Z,98895.05
2019-04-05T15:39:49.094Z,98892.41
2019-04-05T15:42:19.437Z,98900.36
2019-04-05T15:44:49.736Z,98893.83
2019-04-05T15:47:23.258Z,98892.62
2019-04-05T15:49:52.895Z,98886.98
2019-04-05T15:52:23.328Z,98890.65
2019-04-05T15:54:53.678Z,98886.22
2019-04-05T15:57:25.531Z,98889.77
2019-04-05T15:59:58.424Z,98878.31
2019-04-05T16:02:28.832Z,98878.10
2019-04-05T16:04:59.201Z,98880.23
2019-04-05T16:07:31.380Z,98880.16
2019-04-05T16:10:01.688Z,98887.63
2019-04-05T16:12:31.982Z,98880.39
2019-04-05T16:15:02.282Z,98891.73
2019-04-05T16:17:32.805Z,98887.75
2019-04-05T16:20:03.399Z,98895.03
2019-04-05T16:22:35.847Z,98902.43
2019-04-05T16:25:06.391Z,98899.46
2019-04-05T16:27:36.673Z,98899.12
2019-04-05T16:30:08.274Z,98901.83
2019-04-05T16:32:38.599Z,98904.42
2019-04-05T16:35:08.992Z,98907.89
2019-04-05T16:37:39.532Z,98909.14
2019-04-05T16:40:09.987Z,98911.36
2019-04-05T16:42:40.348Z,98908.73
2019-04-05T16:45:11.765Z,98907.73
2019-04-05T16:47:43.231Z,98916.58
2019-04-05T16:50:16.363Z,98910.67
2019-04-05T16:52:46.751Z,98909.07
2019-04-05T16:55:17.471Z,98907.81
2019-04-05T16:57:47.775Z,98907.42
2019-04-05T17:00:18.533Z,98909.64
2019-04-05T17:02:48.950Z,98918.39
2019-04-05T17:05:19.204Z,98918.47
2019-04-05T17:07:49.814Z,98915.03
2019-04-05T17:10:20.199Z,98919.00
2019-04-05T17:12:50.524Z,98926.80
2019-04-05T17:15:20.890Z,98927.33
2019-04-05T17:17:51.267Z,98917.08
2019-04-05T17:20:21.533Z,98925.76
2019-04-05T17:22:58.107Z,98929.82
2019-04-05T17:25:23.937Z,98918.63
2019-04-05T17:27:54.332Z,98921.24
2019-04-05T17:30:24.591Z,98922.69
2019-04-05T17:32:54.891Z,98922.36
2019-04-05T17:35:25.235Z,98920.83
2019-04-05T17:37:55.877Z,98923.91
2019-04-05T17:40:26.168Z,98927.95
2019-04-05T17:42:56.902Z,98923.20
2019-04-05T17:45:27.253Z,98930.61
2019-04-05T17:47:57.541Z,98920.61
2019-04-05T17:50:33.381Z,98925.36
2019-04-05T17:53:12.102Z,98927.50
2019-04-05T17:55:36.135Z,98929.56
2019-04-05T17:58:07.426Z,98929.59
2019-04-05T18:00:38.129Z,98930.89
2019-04-05T18:03:08.815Z,98926.98
2019-04-05T18:05:40.707Z,98928.69
2019-04-05T18:08:11.026Z,98932.16
2019-04-05T18:10:41.631Z,98935.55
2019-04-05T18:13:11.945Z,98934.61
2019-04-05T18:15:52.225Z,98943.25
2019-04-05T18:18:14.827Z,98944.96
2019-04-05T18:20:45.193Z,98944.13
2019-04-05T18:23:24.839Z,98946.64
2019-04-05T18:25:47.968Z,98939.27
2019-04-05T18:28:18.274Z,98944.09
2019-04-05T18:30:48.992Z,98937.16
2019-04-05T18:33:19.362Z,98945.42
2019-04-05T18:35:49.737Z,98946.74
2019-04-05T18:38:19.997Z,98954.52
2019-04-05T18:40:50.691Z,98953.70
2019-04-05T18:43:21.029Z,98952.86
2019-04-05T18:45:51.344Z,98947.23
2019-04-05T18:48:21.778Z,98955.48
2019-04-05T18:50:52.110Z,98952.05
2019-04-05T18:53:22.406Z,98955.52
2019-04-05T18:55:53.753Z,98957.30
2019-04-05T18:58:24.009Z,98963.28
2019-04-05T19:00:54.759Z,98966.30
2019-04-05T19:03:25.206Z,98967.13
2019-04-05T19:05:55.580Z,98968.39
2019-04-05T19:08:38.673Z,98972.70
2019-04-05T19:10:58.257Z,98968.33
2019-04-05T19:13:28.529Z,98972.11
2019-04-05T19:15:59.497Z,98976.41
2019-04-05T19:18:30.505Z,98977.70
2019-04-05T19:21:01.026Z,98975.92
2019-04-05T19:23:31.350Z,98974.63
2019-04-05T19:26:01.962Z,98972.50
2019-04-05T19:28:32.271Z,98973.02
2019-04-05T19:48:46.967Z,98956.41
2019-04-05T19:51:17.279Z,98954.66
2019-04-05T19:53:47.881Z,98952.56
2019-04-05T19:56:18.388Z,98953.81
2019-04-05T19:58:48.761Z,98943.53
2019-04-05T20:01:19.165Z,98946.58
2019-04-05T20:03:49.410Z,98947.48
2019-04-05T20:06:20.805Z,98950.08
2019-04-05T20:08:51.513Z,98953.50
2019-04-05T20:11:22.407Z,98953.92
2019-04-05T20:13:52.694Z,98957.35
2019-04-05T20:16:23.015Z,98956.09
2019-04-05T20:18:53.621Z,98958.68
2019-04-05T20:21:23.889Z,98956.05
2019-04-05T20:23:54.139Z,98959.52
2019-04-05T20:26:24.509Z,98955.56
2019-04-05T20:28:54.833Z,98958.13
2019-04-05T20:31:25.107Z,98960.71
2019-04-05T20:33:55.407Z,98956.41
2019-04-05T20:36:25.687Z,98956.44
2019-04-05T20:38:56.143Z,98963.30
2019-04-05T20:41:26.526Z,98970.65
2019-04-05T20:43:56.887Z,98967.70
2019-04-05T20:46:27.308Z,98966.52
2019-04-05T20:48:57.578Z,98969.48
2019-04-05T20:51:27.893Z,98964.77
2019-04-05T20:53:58.206Z,98968.65
2019-04-05T20:56:28.545Z,98976.91
2019-04-05T20:58:58.852Z,98973.50
2019-04-05T21:01:29.213Z,98973.99
2019-04-05T21:03:59.507Z,98970.11
2019-04-05T21:06:29.880Z,98967.88
2019-04-05T21:09:00.428Z,98968.75
2019-04-05T21:11:30.967Z,98975.58
2019-04-05T21:14:01.767Z,98969.98
2019-04-05T21:16:32.110Z,98967.96
2019-04-05T21:19:04.935Z,98969.36
2019-04-05T21:21:34.516Z,98976.67
2019-04-05T21:24:04.959Z,98974.95
2019-04-05T21:26:35.221Z,98981.04
2019-04-05T21:29:05.632Z,98972.82
2019-04-05T21:31:36.063Z,98979.78
2019-04-05T21:34:06.627Z,98983.24
2019-04-05T21:36:36.927Z,98984.64
2019-04-05T21:39:08.888Z,98988.06
2019-04-05T21:41:39.212Z,98982.47
2019-04-05T21:44:09.528Z,98982.08
2019-04-05T21:46:39.897Z,98987.16
2019-04-05T21:49:10.553Z,98989.36
2019-04-05T21:51:40.918Z,98979.81
2019-04-05T21:54:11.544Z,98983.28
2019-04-05T21:56:41.814Z,98986.73
2019-04-05T21:59:12.525Z,98983.28
2019-04-05T22:01:42.875Z,98982.85
2019-04-05T22:04:13.556Z,98987.16
2019-04-05T22:06:43.885Z,98995.28
2019-04-05T22:09:14.370Z,98990.13
2019-04-05T22:11:44.639Z,98991.43
2019-04-05T22:14:14.924Z,98991.88
2019-04-05T22:16:45.644Z,98987.16
2019-04-05T22:19:16.017Z,98985.02
2019-04-05T22:21:46.414Z,98995.45
2019-04-05T22:24:16.770Z,98994.12
2019-04-05T22:26:47.084Z,98994.61
2019-04-05T22:29:17.326Z,98989.84
2019-04-05T22:31:47.673Z,98992.44
2019-04-05T22:34:17.922Z,98992.44
2019-04-05T22:36:48.614Z,98984.22
2019-04-05T22:39:18.849Z,98983.38
2019-04-05T22:41:49.172Z,98985.52
2019-04-05T22:44:19.488Z,98991.53
2019-04-05T22:46:49.838Z,98985.96
2019-04-05T22:49:20.105Z,98985.55
2019-04-05T22:51:50.427Z,98986.84
2019-04-05T22:54:20.687Z,98978.69
2019-04-05T22:56:50.986Z,98989.10
2019-04-05T22:59:21.844Z,98984.38
2019-04-05T23:01:52.136Z,98977.62
2019-04-05T23:04:22.524Z,98970.20
2019-04-05T23:06:52.817Z,98969.27
2019-04-05T23:09:23.149Z,98969.40
2019-04-05T23:11:53.427Z,98960.34
2019-04-05T23:14:23.950Z,98967.59
2019-04-05T23:16:54.494Z,98965.48
2019-04-05T23:19:24.996Z,98965.48
2019-04-05T23:21:55.351Z,98961.12
2019-04-05T23:24:25.721Z,98964.06
2019-04-05T23:26:56.098Z,98964.86
2019-04-05T23:29:26.391Z,98965.73
2019-04-05T23:31:56.801Z,98968.33
2019-04-05T23:34:27.092Z,98960.95
2019-04-05T23:36:57.744Z,98962.66
2019-04-05T23:39:28.360Z,98965.58
2019-04-05T23:41:59.320Z,98967.22
2019-04-05T23:44:29.718Z,98965.99
2019-04-05T23:47:00.078Z,98967.70
2019-04-05T23:49:30.357Z,98968.09
2019-04-05T23:52:01.047Z,98971.98
2019-04-05T23:54:31.362Z,98965.99
2019-04-05T23:57:01.733Z,98969.00
2019-04-05T23:59:32.046Z,98966.80
